createdAt,value
2023-03-11T00:00:13.149Z,3.15
2023-03-11T00:01:13.125Z,3.12
2023-03-11T00:02:13.276Z,3.13
2023-03-11T00:03:13.105Z,3.12
2023-03-11T00:04:13.113Z,3.07
2023-03-11T00:05:13.132Z,3.08
2023-03-11T00:06:13.046Z,3.05
2023-03-11T00:07:13.028Z,3.05
2023-03-11T00:08:13.032Z,3.02
2023-03-11T00:09:13.048Z,3.01
2023-03-11T00:10:13.014Z,3.01
2023-03-11T00:11:13.022Z,3.01
2023-03-11T00:12:12.990Z,2.97
2023-03-11T00:13:12.974Z,2.97
2023-03-11T00:14:12.965Z,2.95
2023-03-11T00:15:12.964Z,2.92
2023-03-11T00:16:13.059Z,2.95
2023-03-11T00:17:12.954Z,2.89
2023-03-11T00:18:12.971Z,2.94
2023-03-11T00:19:12.927Z,2.89
2023-03-11T00:20:12.917Z,2.90
2023-03-11T00:21:12.927Z,2.89
2023-03-11T00:22:12.889Z,2.86
2023-03-11T00:23:12.921Z,2.86
2023-03-11T00:24:12.894Z,2.81
2023-03-11T00:25:12.866Z,2.83
2023-03-11T00:26:12.846Z,2.81
2023-03-11T00:27:12.839Z,2.77
2023-03-11T00:28:12.818Z,2.76
2023-03-11T00:29:12.799Z,2.76
2023-03-11T00:30:12.836Z,2.74
2023-03-11T00:31:12.808Z,2.66
2023-03-11T00:32:13.911Z,2.68
2023-03-11T00:33:12.773Z,2.66
2023-03-11T00:34:12.763Z,2.65
2023-03-11T00:35:12.789Z,2.59
2023-03-11T00:36:12.793Z,2.59
2023-03-11T00:37:12.731Z,2.55
2023-03-11T00:38:12.712Z,2.53
2023-03-11T00:39:12.713Z,2.53
2023-03-11T00:40:12.727Z,2.50
2023-03-11T00:41:12.675Z,2.48
2023-03-11T00:42:12.698Z,2.48
2023-03-11T00:43:12.692Z,2.50
2023-03-11T00:44:12.704Z,2.50
2023-03-11T00:45:12.652Z,2.50
2023-03-11T00:46:12.644Z,2.47
2023-03-11T00:47:12.670Z,2.48
2023-03-11T00:48:12.617Z,2.47
2023-03-11T00:49:12.592Z,2.45
2023-03-11T00:50:12.641Z,2.44
2023-03-11T00:51:12.574Z,2.41
2023-03-11T00:52:12.590Z,2.40
2023-03-11T00:53:12.548Z,2.43
2023-03-11T00:54:12.541Z,2.37
2023-03-11T00:55:12.554Z,2.36
2023-03-11T00:56:12.537Z,2.37
2023-03-11T00:57:12.509Z,2.37
2023-03-11T00:58:12.506Z,2.33
2023-03-11T00:59:12.493Z,2.29
2023-03-11T01:00:12.518Z,2.27
2023-03-11T01:01:12.503Z,2.26
2023-03-11T01:02:12.458Z,2.25
2023-03-11T01:03:12.471Z,2.23
2023-03-11T01:04:12.514Z,2.25
2023-03-11T01:05:12.438Z,2.26
2023-03-11T01:06:12.437Z,2.26
2023-03-11T01:07:12.417Z,2.25
2023-03-11T01:08:12.404Z,2.25
2023-03-11T01:09:12.402Z,2.22
2023-03-11T01:10:12.413Z,2.23
2023-03-11T01:11:12.362Z,2.23
2023-03-11T01:12:12.376Z,2.22
2023-03-11T01:13:12.353Z,2.19
2023-03-11T01:14:12.338Z,2.19
2023-03-11T01:15:12.431Z,2.22
2023-03-11T01:16:12.363Z,2.20
2023-03-11T01:17:12.307Z,2.22
2023-03-11T01:18:12.308Z,2.19
2023-03-11T01:19:12.299Z,2.19
2023-03-11T01:20:12.306Z,2.19
2023-03-11T01:21:12.297Z,2.19
2023-03-11T01:22:12.278Z,2.20
2023-03-11T01:23:12.279Z,2.18
2023-03-11T01:24:12.255Z,2.15
2023-03-11T01:25:13.046Z,2.15
2023-03-11T01:26:12.217Z,2.14
2023-03-11T01:27:12.208Z,2.14
2023-03-11T01:28:12.211Z,2.15
2023-03-11T01:29:12.200Z,2.14
2023-03-11T01:30:12.201Z,2.15
2023-03-11T01:31:12.223Z,2.18
2023-03-11T01:32:12.238Z,2.18
2023-03-11T01:33:12.143Z,2.12
2023-03-11T01:34:12.153Z,2.14
2023-03-11T01:35:12.186Z,2.12
2023-03-11T01:36:12.130Z,2.11
2023-03-11T01:37:12.127Z,2.11
2023-03-11T01:38:12.103Z,2.11
2023-03-11T01:39:12.106Z,2.09
2023-03-11T01:40:12.096Z,2.11
2023-03-11T01:41:12.068Z,2.07
2023-03-11T01:42:12.059Z,2.07
2023-03-11T01:43:12.054Z,2.07
2023-03-11T01:44:12.068Z,2.07
2023-03-11T01:45:12.053Z,2.07
2023-03-11T01:46:12.051Z,2.08
2023-03-11T01:47:12.022Z,2.05
2023-03-11T01:48:12.012Z,2.05
2023-03-11T01:49:12.005Z,2.07
2023-03-11T01:50:11.993Z,2.07
2023-03-11T01:51:11.955Z,2.07
2023-03-11T01:52:11.959Z,2.07
2023-03-11T01:53:11.950Z,2.07
2023-03-11T01:54:11.931Z,2.04
2023-03-11T01:55:11.974Z,2.02
2023-03-11T01:56:11.928Z,2.02
2023-03-11T01:57:11.893Z,2.04
2023-03-11T01:58:11.914Z,2.04
2023-03-11T01:59:11.938Z,2.04
2023-03-11T02:00:11.874Z,2.04
2023-03-11T02:01:11.859Z,2.01
2023-03-11T02:02:12.008Z,2.04
2023-03-11T02:03:11.851Z,2.01
2023-03-11T02:04:11.851Z,2.02
2023-03-11T02:05:11.813Z,2.02
2023-03-11T02:06:11.803Z,2.02
2023-03-11T02:07:11.782Z,2.01
2023-03-11T02:08:11.782Z,2.02
2023-03-11T02:09:11.800Z,2.05
2023-03-11T02:10:11.771Z,2.04
2023-03-11T02:11:11.766Z,2.00
2023-03-11T02:12:11.793Z,2.02
2023-03-11T02:13:11.781Z,2.02
2023-03-11T02:14:11.722Z,2.00
2023-03-11T02:15:11.960Z,1.95
2023-03-11T02:16:11.696Z,2.00
2023-03-11T02:17:11.719Z,2.01
2023-03-11T02:18:11.698Z,2.01
2023-03-11T02:19:11.673Z,2.00
2023-03-11T02:20:11.673Z,2.01
2023-03-11T02:21:11.645Z,2.01
2023-03-11T02:22:11.666Z,2.01
2023-03-11T02:23:11.621Z,2.01
2023-03-11T02:24:11.620Z,1.98
2023-03-11T02:25:11.620Z,2.00
2023-03-11T02:26:11.593Z,2.01
2023-03-11T02:27:11.589Z,2.00
2023-03-11T02:28:11.579Z,2.01
2023-03-11T02:29:11.581Z,2.04
2023-03-11T02:30:11.592Z,2.00
2023-03-11T02:31:11.581Z,2.00
2023-03-11T02:32:11.652Z,2.01
2023-03-11T02:33:11.520Z,2.01
2023-03-11T02:34:11.526Z,2.01
2023-03-11T02:35:11.539Z,2.01
2023-03-11T02:36:11.526Z,2.02
2023-03-11T02:37:11.499Z,2.00
2023-03-11T02:38:11.470Z,2.00
2023-03-11T02:39:11.466Z,1.95
2023-03-11T02:40:11.471Z,1.95
2023-03-11T02:41:11.450Z,1.93
2023-03-11T02:42:11.456Z,1.93
2023-03-11T02:43:11.426Z,1.95
2023-03-11T02:44:11.433Z,1.98
2023-03-11T02:45:11.426Z,1.93
2023-03-11T02:46:11.410Z,1.95
2023-03-11T02:47:11.374Z,1.98
2023-03-11T02:48:11.373Z,1.95
2023-03-11T02:49:11.390Z,1.98
2023-03-11T02:50:11.383Z,1.93
2023-03-11T02:51:11.339Z,1.92
2023-03-11T02:52:11.325Z,1.95
2023-03-11T02:53:11.311Z,1.95
2023-03-11T02:54:11.321Z,1.92
2023-03-11T02:55:11.307Z,1.95
2023-03-11T02:56:11.301Z,1.92
2023-03-11T02:57:11.268Z,1.95
2023-03-11T02:58:11.281Z,1.93
2023-03-11T02:59:11.345Z,1.98
2023-03-11T03:00:11.261Z,1.95
2023-03-11T03:01:11.265Z,1.95
2023-03-11T03:02:11.240Z,1.95
2023-03-11T03:03:11.219Z,1.95
2023-03-11T03:04:11.262Z,1.95
2023-03-11T03:05:11.210Z,1.93
2023-03-11T03:06:11.206Z,1.92
2023-03-11T03:07:11.166Z,1.92
2023-03-11T03:08:11.190Z,1.93
2023-03-11T03:09:11.143Z,1.95
2023-03-11T03:10:11.152Z,1.95
2023-03-11T03:11:11.126Z,1.95
2023-03-11T03:12:11.151Z,2.00
2023-03-11T03:13:11.110Z,2.00
2023-03-11T03:14:11.110Z,1.98
2023-03-11T03:15:11.094Z,1.95
2023-03-11T03:16:11.133Z,1.98
2023-03-11T03:17:11.243Z,1.98
2023-03-11T03:18:11.085Z,1.98
2023-03-11T03:19:11.050Z,2.00
2023-03-11T03:20:11.067Z,2.01
2023-03-11T03:21:11.070Z,2.00
2023-03-11T03:22:11.036Z,2.01
2023-03-11T03:23:11.016Z,1.98
2023-03-11T03:24:11.002Z,2.01
2023-03-11T03:25:11.002Z,1.98
2023-03-11T03:26:10.999Z,1.93
2023-03-11T03:27:10.975Z,1.98
2023-03-11T03:28:10.975Z,1.92
2023-03-11T03:29:10.978Z,1.95
2023-03-11T03:30:10.966Z,1.95
2023-03-11T03:31:10.961Z,1.95
2023-03-11T03:32:10.951Z,1.98
2023-03-11T03:33:10.919Z,1.98
2023-03-11T03:34:10.904Z,1.98
2023-03-11T03:35:10.890Z,1.98
2023-03-11T03:36:10.970Z,1.95
2023-03-11T03:37:10.874Z,1.98
2023-03-11T03:38:10.884Z,1.98
2023-03-11T03:39:10.859Z,2.01
2023-03-11T03:40:10.847Z,2.02
2023-03-11T03:41:10.860Z,1.98
2023-03-11T03:42:10.831Z,2.00
2023-03-11T03:43:10.834Z,1.98
2023-03-11T03:44:10.856Z,1.95
2023-03-11T03:45:10.812Z,1.95
2023-03-11T03:46:10.875Z,1.95
2023-03-11T03:47:10.789Z,1.95
2023-03-11T03:48:10.761Z,1.95
2023-03-11T03:49:10.766Z,1.93
2023-03-11T03:50:10.766Z,1.93
2023-03-11T03:51:10.761Z,1.90
2023-03-11T03:52:10.735Z,1.92
2023-03-11T03:53:10.717Z,1.92
2023-03-11T03:54:10.704Z,1.92
2023-03-11T03:55:10.727Z,1.90
2023-03-11T03:56:10.699Z,1.90
2023-03-11T03:57:10.680Z,1.92
2023-03-11T03:58:10.748Z,1.90
2023-03-11T03:59:10.688Z,1.88
2023-03-11T04:00:10.653Z,1.86
2023-03-11T04:01:10.684Z,1.83
2023-03-11T04:02:10.727Z,1.88
2023-03-11T04:03:10.742Z,1.86
2023-03-11T04:04:10.612Z,1.83
2023-03-11T04:05:10.593Z,1.83
2023-03-11T04:06:10.643Z,1.85
2023-03-11T04:07:10.580Z,1.85
2023-03-11T04:08:10.586Z,1.85
2023-03-11T04:09:10.575Z,1.85
2023-03-11T04:10:10.550Z,1.86
2023-03-11T04:11:10.595Z,1.88
2023-03-11T04:12:10.564Z,1.86
2023-03-11T04:13:10.532Z,1.83
2023-03-11T04:14:10.510Z,1.83
2023-03-11T04:15:10.534Z,1.85
2023-03-11T04:16:10.515Z,1.82
2023-03-11T04:17:10.577Z,1.86
2023-03-11T04:18:10.471Z,1.86
2023-03-11T04:19:10.489Z,1.88
2023-03-11T04:20:10.525Z,1.85
2023-03-11T04:21:10.487Z,1.86
2023-03-11T04:22:10.434Z,1.86
2023-03-11T04:23:10.461Z,1.83
2023-03-11T04:24:10.422Z,1.89
2023-03-11T04:25:10.448Z,1.89
2023-03-11T04:26:10.397Z,1.88
2023-03-11T04:27:10.387Z,1.88
2023-03-11T04:28:10.403Z,1.89
2023-03-11T04:29:10.373Z,1.92
2023-03-11T04:30:10.353Z,1.90
2023-03-11T04:31:10.471Z,1.89
2023-03-11T04:32:10.342Z,1.86
2023-03-11T04:33:10.344Z,1.86
2023-03-11T04:34:10.320Z,1.85
2023-03-11T04:35:10.307Z,1.86
2023-03-11T04:36:10.307Z,1.88
2023-03-11T04:37:10.284Z,1.85
2023-03-11T04:38:10.328Z,1.83
2023-03-11T04:39:10.265Z,1.82
2023-03-11T04:40:10.242Z,1.82
2023-03-11T04:41:10.254Z,1.82
2023-03-11T04:42:10.230Z,1.81
2023-03-11T04:43:10.262Z,1.81
2023-03-11T04:44:10.225Z,1.86
2023-03-11T04:45:10.207Z,1.83
2023-03-11T04:46:10.237Z,1.82
2023-03-11T04:47:10.216Z,1.81
2023-03-11T04:48:10.191Z,1.81
2023-03-11T04:49:10.183Z,1.83
2023-03-11T04:50:10.156Z,1.82
2023-03-11T04:51:10.157Z,1.82
2023-03-11T04:52:10.161Z,1.79
2023-03-11T04:53:10.128Z,1.83
2023-03-11T04:54:10.114Z,1.83
2023-03-11T04:55:10.107Z,1.83
2023-03-11T04:56:10.123Z,1.82
2023-03-11T04:57:10.075Z,1.82
2023-03-11T04:58:10.108Z,1.83
2023-03-11T04:59:10.060Z,1.83
2023-03-11T05:00:10.069Z,1.83
2023-03-11T05:01:10.073Z,1.85
2023-03-11T05:02:12.482Z,1.83
2023-03-11T05:03:10.001Z,1.83
2023-03-11T05:04:10.063Z,1.82
2023-03-11T05:05:09.957Z,1.82
2023-03-11T05:06:09.988Z,1.82
2023-03-11T05:07:10.070Z,1.83
2023-03-11T05:08:09.984Z,1.85
2023-03-11T05:09:09.948Z,1.85
2023-03-11T05:10:09.888Z,1.86
2023-03-11T05:11:09.925Z,1.89
2023-03-11T05:12:09.874Z,1.88
2023-03-11T05:13:09.886Z,1.86
2023-03-11T05:14:09.856Z,1.86
2023-03-11T05:15:09.856Z,1.86
2023-03-11T05:16:09.926Z,1.86
2023-03-11T05:17:09.849Z,1.86
2023-03-11T05:18:09.830Z,1.86
2023-03-11T05:19:09.863Z,1.85
2023-03-11T05:20:09.800Z,1.86
2023-03-11T05:21:09.817Z,1.86
2023-03-11T05:22:09.788Z,1.83
2023-03-11T05:23:09.802Z,1.85
2023-03-11T05:24:09.771Z,1.86
2023-03-11T05:25:09.798Z,1.89
2023-03-11T05:26:09.748Z,1.90
2023-03-11T05:27:09.743Z,1.88
2023-03-11T05:28:09.814Z,1.90
2023-03-11T05:29:09.709Z,1.89
2023-03-11T05:30:09.735Z,1.90
2023-03-11T05:31:09.756Z,1.90
2023-03-11T05:32:09.728Z,1.89
2023-03-11T05:33:09.683Z,1.92
2023-03-11T05:34:09.680Z,1.86
2023-03-11T05:35:09.642Z,1.89
2023-03-11T05:36:09.639Z,1.90
2023-03-11T05:37:09.653Z,1.90
2023-03-11T05:38:09.636Z,1.93
2023-03-11T05:39:09.645Z,1.92
2023-03-11T05:40:09.657Z,1.92
2023-03-11T05:41:09.609Z,1.93
2023-03-11T05:42:09.608Z,1.93
2023-03-11T05:43:09.587Z,1.95
2023-03-11T05:44:09.564Z,1.95
2023-03-11T05:45:09.550Z,1.93
2023-03-11T05:46:09.618Z,1.93
2023-03-11T05:47:09.578Z,1.95
2023-03-11T05:48:09.527Z,1.92
2023-03-11T05:49:09.579Z,1.90
2023-03-11T05:50:09.509Z,1.90
2023-03-11T05:51:09.516Z,1.92
2023-03-11T05:52:09.523Z,1.93
2023-03-11T05:53:09.478Z,1.92
2023-03-11T05:54:09.491Z,1.93
2023-03-11T05:55:09.448Z,1.92
2023-03-11T05:56:09.455Z,1.93
2023-03-11T05:57:09.454Z,1.98
2023-03-11T05:58:09.478Z,1.98
2023-03-11T05:59:09.417Z,2.01
2023-03-11T06:00:09.428Z,2.00
2023-03-11T06:01:09.411Z,2.01
2023-03-11T06:02:09.380Z,2.01
2023-03-11T06:03:09.374Z,2.02
2023-03-11T06:04:09.526Z,2.00
2023-03-11T06:05:12.150Z,2.01
2023-03-11T06:06:09.359Z,1.98
2023-03-11T06:07:09.348Z,2.00
2023-03-11T06:08:09.317Z,2.01
2023-03-11T06:09:09.313Z,2.01
2023-03-11T06:10:09.307Z,2.00
2023-03-11T06:11:09.308Z,2.02
2023-03-11T06:12:09.284Z,2.01
2023-03-11T06:13:09.282Z,2.01
2023-03-11T06:14:09.254Z,2.02
2023-03-11T06:15:09.261Z,2.02
2023-03-11T06:16:09.308Z,2.00
2023-03-11T06:17:09.236Z,2.02
2023-03-11T06:18:09.213Z,2.01
2023-03-11T06:19:09.227Z,2.02
2023-03-11T06:20:09.212Z,2.01
2023-03-11T06:21:09.212Z,2.04
2023-03-11T06:22:09.184Z,2.00
2023-03-11T06:23:09.179Z,2.00
2023-03-11T06:24:09.177Z,2.01
2023-03-11T06:25:09.180Z,2.00
2023-03-11T06:26:09.172Z,1.95
2023-03-11T06:27:09.134Z,1.95
2023-03-11T06:28:09.128Z,1.93
2023-03-11T06:29:09.108Z,1.93
2023-03-11T06:30:09.101Z,1.89
2023-03-11T06:31:09.151Z,1.86
2023-03-11T06:32:09.080Z,1.85
2023-03-11T06:33:09.074Z,1.81
2023-03-11T06:34:09.060Z,1.82
2023-03-11T06:35:09.059Z,1.83
2023-03-11T06:36:09.096Z,1.81
2023-03-11T06:37:09.041Z,1.82
2023-03-11T06:38:09.042Z,1.83
2023-03-11T06:39:09.028Z,1.86
2023-03-11T06:40:08.991Z,1.85
2023-03-11T06:41:09.013Z,1.85
2023-03-11T06:42:08.994Z,1.86
2023-03-11T06:43:08.975Z,1.83
2023-03-11T06:44:08.959Z,1.88
2023-03-11T06:45:08.956Z,1.90
2023-03-11T06:46:09.023Z,1.88
2023-03-11T06:47:08.935Z,1.89
2023-03-11T06:48:08.930Z,1.89
2023-03-11T06:49:08.921Z,1.86
2023-03-11T06:50:08.896Z,1.88
2023-03-11T06:51:08.951Z,1.88
2023-03-11T06:52:08.875Z,1.92
2023-03-11T06:53:08.875Z,1.90
2023-03-11T06:54:08.872Z,1.92
2023-03-11T06:55:08.874Z,1.95
2023-03-11T06:56:08.841Z,1.92
2023-03-11T06:57:08.831Z,1.93
2023-03-11T06:58:08.825Z,1.93
2023-03-11T06:59:08.817Z,1.92
2023-03-11T07:00:08.825Z,1.95
2023-03-11T07:01:08.854Z,1.95
2023-03-11T07:02:08.792Z,1.95
2023-03-11T07:03:08.793Z,2.02
2023-03-11T07:04:08.865Z,2.02
2023-03-11T07:05:08.753Z,2.07
2023-03-11T07:06:08.753Z,2.08
2023-03-11T07:07:08.744Z,2.07
2023-03-11T07:08:08.706Z,2.05
2023-03-11T07:09:08.720Z,2.05
2023-03-11T07:10:08.702Z,2.04
2023-03-11T07:11:08.711Z,2.02
2023-03-11T07:12:08.693Z,2.02
2023-03-11T07:13:08.676Z,2.04
2023-03-11T07:14:08.657Z,2.08
2023-03-11T07:15:08.685Z,2.07
2023-03-11T07:16:08.803Z,2.07
2023-03-11T07:17:08.638Z,2.08
2023-03-11T07:18:08.613Z,2.09
2023-03-11T07:19:08.614Z,2.09
2023-03-11T07:20:08.584Z,2.11
2023-03-11T07:21:08.615Z,2.14
2023-03-11T07:22:08.607Z,2.22
2023-03-11T07:23:08.561Z,2.43
2023-03-11T07:24:08.541Z,2.97
2023-03-11T07:25:08.618Z,3.02
2023-03-11T07:26:08.528Z,3.02
2023-03-11T07:27:08.537Z,3.31
2023-03-11T07:28:08.508Z,3.30
2023-03-11T07:29:08.534Z,3.19
2023-03-11T07:30:08.498Z,3.10
2023-03-11T07:31:08.491Z,2.90
2023-03-11T07:32:08.505Z,2.77
2023-03-11T07:33:08.460Z,2.66
2023-03-11T07:34:08.476Z,2.56
2023-03-11T07:35:08.448Z,2.53
2023-03-11T07:36:08.496Z,2.44
2023-03-11T07:37:08.427Z,2.40
2023-03-11T07:38:08.418Z,2.36
2023-03-11T07:39:08.389Z,2.32
2023-03-11T07:40:08.400Z,2.29
2023-03-11T07:41:08.392Z,2.27
2023-03-11T07:42:08.379Z,2.26
2023-03-11T07:43:08.372Z,2.26
2023-03-11T07:44:09.981Z,2.29
2023-03-11T07:45:08.337Z,2.29
2023-03-11T07:46:08.471Z,2.32
2023-03-11T07:47:08.316Z,2.32
2023-03-11T07:48:08.313Z,2.36
2023-03-11T07:49:08.297Z,2.40
2023-03-11T07:50:08.306Z,2.43
2023-03-11T07:51:08.283Z,2.55
2023-03-11T07:52:08.251Z,2.69
2023-03-11T07:53:08.248Z,2.73
2023-03-11T07:54:08.260Z,2.77
2023-03-11T07:55:08.234Z,2.94
2023-03-11T07:56:08.238Z,3.86
2023-03-11T07:57:08.202Z,4.16
2023-03-11T07:58:08.208Z,5.11
2023-03-11T07:59:08.175Z,5.49
2023-03-11T08:00:08.180Z,5.17
2023-03-11T08:01:08.177Z,4.75
2023-03-11T08:02:08.192Z,4.42
2023-03-11T08:03:08.139Z,5.11
2023-03-11T08:04:08.125Z,4.79
2023-03-11T08:05:08.176Z,4.56
2023-03-11T08:06:08.335Z,5.27
2023-03-11T08:07:08.103Z,4.94
2023-03-11T08:08:08.085Z,4.68
2023-03-11T08:09:08.076Z,4.61
2023-03-11T08:10:08.094Z,4.96
2023-03-11T08:11:08.079Z,4.62
2023-03-11T08:12:08.036Z,4.75
2023-03-11T08:13:08.046Z,4.87
2023-03-11T08:14:08.016Z,4.62
2023-03-11T08:15:08.024Z,4.38
2023-03-11T08:16:08.086Z,4.14
2023-03-11T08:17:07.993Z,3.98
2023-03-11T08:18:10.073Z,4.35
2023-03-11T08:19:07.976Z,4.28
2023-03-11T08:20:07.963Z,4.20
2023-03-11T08:21:07.980Z,4.14
2023-03-11T08:22:07.947Z,4.25
2023-03-11T08:23:07.942Z,4.36
2023-03-11T08:24:07.930Z,4.46
2023-03-11T08:25:07.942Z,4.29
2023-03-11T08:26:07.913Z,4.18
2023-03-11T08:27:07.881Z,4.06
2023-03-11T08:28:07.931Z,4.02
2023-03-11T08:29:07.862Z,4.10
2023-03-11T08:30:07.867Z,3.99
2023-03-11T08:31:07.972Z,4.08
2023-03-11T08:32:07.852Z,3.99
2023-03-11T08:33:07.821Z,3.89
2023-03-11T08:34:07.836Z,3.84
2023-03-11T08:35:07.831Z,3.78
2023-03-11T08:36:07.891Z,4.25
2023-03-11T08:37:07.791Z,4.57
2023-03-11T08:38:07.796Z,5.47
2023-03-11T08:39:07.832Z,5.81
2023-03-11T08:40:07.770Z,6.73
2023-03-11T08:41:08.018Z,7.58
2023-03-11T08:42:07.735Z,7.42
2023-03-11T08:43:07.718Z,8.70
2023-03-11T08:44:07.718Z,8.50
2023-03-11T08:45:07.719Z,8.10
2023-03-11T08:46:07.759Z,7.85
2023-03-11T08:47:07.691Z,7.45
2023-03-11T08:48:07.669Z,6.71
2023-03-11T08:49:07.659Z,5.90
2023-03-11T08:50:07.683Z,5.52
2023-03-11T08:51:07.675Z,5.58
2023-03-11T08:52:07.673Z,5.32
2023-03-11T08:53:07.644Z,5.06
2023-03-11T08:54:07.622Z,4.86
2023-03-11T08:55:07.608Z,4.61
2023-03-11T08:56:07.597Z,4.64
2023-03-11T08:57:07.594Z,4.91
2023-03-11T08:58:07.564Z,4.88
2023-03-11T08:59:07.571Z,4.96
2023-03-11T09:00:08.585Z,4.74
2023-03-11T09:01:07.534Z,5.26
2023-03-11T09:02:07.548Z,5.33
2023-03-11T09:03:07.557Z,5.58
2023-03-11T09:04:07.528Z,5.66
2023-03-11T09:05:07.543Z,5.35
2023-03-11T09:06:07.564Z,4.97
2023-03-11T09:07:08.547Z,4.54
2023-03-11T09:08:13.519Z,4.26
2023-03-11T09:09:07.449Z,4.13
2023-03-11T09:10:07.449Z,4.02
2023-03-11T09:11:08.062Z,3.95
2023-03-11T09:12:07.425Z,3.89
2023-03-11T09:13:07.405Z,3.84
2023-03-11T09:14:08.027Z,3.78
2023-03-11T09:15:07.385Z,3.75
2023-03-11T09:16:07.473Z,3.78
2023-03-11T09:17:07.379Z,4.13
2023-03-11T09:18:07.359Z,4.18
2023-03-11T09:19:07.369Z,4.00
2023-03-11T09:20:07.346Z,3.90
2023-03-11T09:21:07.356Z,3.90
2023-03-11T09:22:07.446Z,3.89
2023-03-11T09:23:07.319Z,3.82
2023-03-11T09:24:07.341Z,3.88
2023-03-11T09:25:07.296Z,3.92
2023-03-11T09:26:07.374Z,3.90
2023-03-11T09:27:07.261Z,3.99
2023-03-11T09:28:07.257Z,4.72
2023-03-11T09:29:07.271Z,4.74
2023-03-11T09:30:07.254Z,4.59
2023-03-11T09:31:07.289Z,4.36
2023-03-11T09:32:07.229Z,4.16
2023-03-11T09:33:07.202Z,4.06
2023-03-11T09:34:07.235Z,3.93
2023-03-11T09:35:07.193Z,3.86
2023-03-11T09:36:07.226Z,3.82
2023-03-11T09:37:07.161Z,3.78
2023-03-11T09:38:07.154Z,3.75
2023-03-11T09:39:07.160Z,3.72
2023-03-11T09:40:07.140Z,3.70
2023-03-11T09:41:07.139Z,3.68
2023-03-11T09:42:07.118Z,3.62
2023-03-11T09:43:07.106Z,3.57
2023-03-11T09:44:07.107Z,3.59
2023-03-11T09:45:07.084Z,3.62
2023-03-11T09:46:07.120Z,3.68
2023-03-11T09:47:07.071Z,3.75
2023-03-11T09:48:07.075Z,3.78
2023-03-11T09:49:07.048Z,3.74
2023-03-11T09:50:07.049Z,3.71
2023-03-11T09:51:07.041Z,3.70
2023-03-11T09:52:07.039Z,3.70
2023-03-11T09:53:07.041Z,3.75
2023-03-11T09:54:06.992Z,3.92
2023-03-11T09:55:07.011Z,4.13
2023-03-11T09:56:07.039Z,4.56
2023-03-11T09:57:06.957Z,4.38
2023-03-11T09:58:06.968Z,4.17
2023-03-11T09:59:06.944Z,4.11
2023-03-11T10:00:06.933Z,4.10
2023-03-11T10:01:07.082Z,4.10
2023-03-11T10:02:06.930Z,4.21
2023-03-11T10:03:06.937Z,4.75
2023-03-11T10:04:06.895Z,4.97
2023-03-11T10:05:06.881Z,5.73
2023-03-11T10:06:06.911Z,5.32
2023-03-11T10:07:06.854Z,5.19
2023-03-11T10:08:06.870Z,4.91
2023-03-11T10:09:06.847Z,4.72
2023-03-11T10:10:06.831Z,4.54
2023-03-11T10:11:06.857Z,4.49
2023-03-11T10:12:06.884Z,4.38
2023-03-11T10:13:06.799Z,4.34
2023-03-11T10:14:06.823Z,4.31
2023-03-11T10:15:06.808Z,4.18
2023-03-11T10:16:06.808Z,4.17
2023-03-11T10:17:06.752Z,4.18
2023-03-11T10:18:06.753Z,4.17
2023-03-11T10:19:06.729Z,4.16
2023-03-11T10:20:06.727Z,4.21
2023-03-11T10:21:06.739Z,4.10
2023-03-11T10:22:06.707Z,3.92
2023-03-11T10:23:06.697Z,3.86
2023-03-11T10:24:06.698Z,4.06
2023-03-11T10:25:06.676Z,4.28
2023-03-11T10:26:06.703Z,5.33
2023-03-11T10:27:06.661Z,5.17
2023-03-11T10:28:06.660Z,5.01
2023-03-11T10:29:06.779Z,4.94
2023-03-11T10:30:06.635Z,4.94
2023-03-11T10:31:06.646Z,4.94
2023-03-11T10:32:06.614Z,4.80
2023-03-11T10:33:06.604Z,4.88
2023-03-11T10:34:06.627Z,4.93
2023-03-11T10:35:06.574Z,4.69
2023-03-11T10:36:06.630Z,4.50
2023-03-11T10:37:06.552Z,4.32
2023-03-11T10:38:06.561Z,4.18
2023-03-11T10:39:06.540Z,4.17
2023-03-11T10:40:06.526Z,4.20
2023-03-11T10:41:06.545Z,4.26
2023-03-11T10:42:06.520Z,4.29
2023-03-11T10:43:06.513Z,4.47
2023-03-11T10:44:06.492Z,4.54
2023-03-11T10:45:06.476Z,4.53
2023-03-11T10:46:06.518Z,4.53
2023-03-11T10:47:06.475Z,4.49
2023-03-11T10:48:06.438Z,4.35
2023-03-11T10:49:06.451Z,4.16
2023-03-11T10:50:06.422Z,4.10
2023-03-11T10:51:06.464Z,4.13
2023-03-11T10:52:06.422Z,4.16
2023-03-11T10:53:06.386Z,4.10
2023-03-11T10:54:06.382Z,4.06
2023-03-11T10:55:06.433Z,4.10
2023-03-11T10:56:06.395Z,4.13
2023-03-11T10:57:06.349Z,4.08
2023-03-11T10:58:06.363Z,4.02
2023-03-11T10:59:06.358Z,4.00
2023-03-11T11:00:06.336Z,4.00
2023-03-11T11:01:06.434Z,3.95
2023-03-11T11:02:06.308Z,3.89
2023-03-11T11:03:06.278Z,3.82
2023-03-11T11:04:06.296Z,3.77
2023-03-11T11:05:06.269Z,3.81
2023-03-11T11:06:06.302Z,3.81
2023-03-11T11:07:06.252Z,3.84
2023-03-11T11:08:06.236Z,3.84
2023-03-11T11:09:06.229Z,3.82
2023-03-11T11:10:06.233Z,3.75
2023-03-11T11:11:06.213Z,3.71
2023-03-11T11:12:06.232Z,3.77
2023-03-11T11:13:06.183Z,3.90
2023-03-11T11:14:06.186Z,4.10
2023-03-11T11:15:06.194Z,4.14
2023-03-11T11:16:06.179Z,4.24
2023-03-11T11:17:06.199Z,4.32
2023-03-11T11:18:06.151Z,4.91
2023-03-11T11:19:06.127Z,5.27
2023-03-11T11:20:06.123Z,5.19
2023-03-11T11:21:06.106Z,4.97
2023-03-11T11:22:06.131Z,4.88
2023-03-11T11:23:06.083Z,4.62
2023-03-11T11:24:06.109Z,4.46
2023-03-11T11:25:06.103Z,4.29
2023-03-11T11:26:06.096Z,4.21
2023-03-11T11:27:06.054Z,4.07
2023-03-11T11:28:06.039Z,3.96
2023-03-11T11:29:08.715Z,3.89
2023-03-11T11:30:06.011Z,3.93
2023-03-11T11:31:06.040Z,4.02
2023-03-11T11:32:06.042Z,4.10
2023-03-11T11:33:05.986Z,4.20
2023-03-11T11:34:05.982Z,4.24
2023-03-11T11:35:06.000Z,4.14
2023-03-11T11:36:05.967Z,4.16
2023-03-11T11:37:05.954Z,4.29
2023-03-11T11:38:05.931Z,4.57
2023-03-11T11:39:05.915Z,4.51
2023-03-11T11:40:05.921Z,4.56
2023-03-11T11:41:05.896Z,4.62
2023-03-11T11:42:05.913Z,4.57
2023-03-11T11:43:05.900Z,4.39
2023-03-11T11:44:05.877Z,4.35
2023-03-11T11:45:05.868Z,4.24
2023-03-11T11:46:05.897Z,4.14
2023-03-11T11:47:06.454Z,4.28
2023-03-11T11:48:05.850Z,4.46
2023-03-11T11:49:05.815Z,4.44
2023-03-11T11:50:05.813Z,4.87
2023-03-11T11:51:05.814Z,5.75
2023-03-11T11:52:05.803Z,5.47
2023-03-11T11:53:05.777Z,5.04
2023-03-11T11:54:05.814Z,4.67
2023-03-11T11:55:05.746Z,4.51
2023-03-11T11:56:05.736Z,4.43
2023-03-11T11:57:05.747Z,4.32
2023-03-11T11:58:05.733Z,4.28
2023-03-11T11:59:05.702Z,4.28
2023-03-11T12:00:05.701Z,4.35
2023-03-11T12:01:05.706Z,4.34
2023-03-11T12:02:05.732Z,4.26
2023-03-11T12:03:05.684Z,4.24
2023-03-11T12:04:05.664Z,4.25
2023-03-11T12:05:05.677Z,4.28
2023-03-11T12:06:05.641Z,4.32
2023-03-11T12:07:05.656Z,4.28
2023-03-11T12:08:05.617Z,4.17
2023-03-11T12:09:05.604Z,4.17
2023-03-11T12:10:21.454Z,4.24
2023-03-11T12:11:05.592Z,4.32
2023-03-11T12:12:05.606Z,4.39
2023-03-11T12:13:05.594Z,4.47
2023-03-11T12:14:05.580Z,4.47
2023-03-11T12:15:05.561Z,4.50
2023-03-11T12:16:05.645Z,4.47
2023-03-11T12:17:05.563Z,4.42
2023-03-11T12:18:05.517Z,4.36
2023-03-11T12:19:05.500Z,4.35
2023-03-11T12:20:05.540Z,4.39
2023-03-11T12:21:05.508Z,4.54
2023-03-11T12:22:05.584Z,4.64
2023-03-11T12:23:05.468Z,4.67
2023-03-11T12:24:05.463Z,4.69
2023-03-11T12:25:05.501Z,4.71
2023-03-11T12:26:05.426Z,4.75
2023-03-11T12:27:05.443Z,4.79
2023-03-11T12:28:05.414Z,4.80
2023-03-11T12:29:05.454Z,4.71
2023-03-11T12:30:05.412Z,4.67
2023-03-11T12:31:05.435Z,4.67
2023-03-11T12:32:05.381Z,4.56
2023-03-11T12:33:05.364Z,4.34
2023-03-11T12:34:05.344Z,4.26
2023-03-11T12:35:05.405Z,4.25
2023-03-11T12:36:05.485Z,4.20
2023-03-11T12:37:05.335Z,4.20
2023-03-11T12:38:05.315Z,4.20
2023-03-11T12:39:05.357Z,4.17
2023-03-11T12:40:05.281Z,4.16
2023-03-11T12:41:05.306Z,4.08
2023-03-11T12:42:05.320Z,4.04
2023-03-11T12:43:05.280Z,4.07
2023-03-11T12:44:05.252Z,4.10
2023-03-11T12:45:05.234Z,4.08
2023-03-11T12:46:05.246Z,4.13
2023-03-11T12:47:05.229Z,4.14
2023-03-11T12:48:05.210Z,4.14
2023-03-11T12:49:05.189Z,4.13
2023-03-11T12:50:05.200Z,4.13
2023-03-11T12:51:05.170Z,4.14
2023-03-11T12:52:05.171Z,4.08
2023-03-11T12:53:05.149Z,3.98
2023-03-11T12:54:05.177Z,3.98
2023-03-11T12:55:05.137Z,4.04
2023-03-11T12:56:05.127Z,4.08
2023-03-11T12:57:05.205Z,4.13
2023-03-11T12:58:05.103Z,4.16
2023-03-11T12:59:05.097Z,4.20
2023-03-11T13:00:05.131Z,4.28
2023-03-11T13:01:05.074Z,4.34
2023-03-11T13:02:05.135Z,4.35
2023-03-11T13:03:05.115Z,4.35
2023-03-11T13:04:05.034Z,4.35
2023-03-11T13:05:05.121Z,4.34
2023-03-11T13:06:05.049Z,4.54
2023-03-11T13:07:05.024Z,4.56
2023-03-11T13:08:05.018Z,4.51
2023-03-11T13:09:05.005Z,4.49
2023-03-11T13:10:04.988Z,4.43
2023-03-11T13:11:04.989Z,4.32
2023-03-11T13:12:04.993Z,4.17
2023-03-11T13:13:04.969Z,4.10
2023-03-11T13:14:04.982Z,3.99
2023-03-11T13:15:04.949Z,3.93
2023-03-11T13:16:04.962Z,4.47
2023-03-11T13:17:04.967Z,5.98
2023-03-11T13:18:04.923Z,5.33